createdAt,value
2023-04-30T00:01:21.468Z,19.13
2023-04-30T00:02:54.592Z,16.30
2023-04-30T00:04:27.578Z,20.07
2023-04-30T00:05:59.592Z,16.67
2023-04-30T00:07:32.730Z,15.43
2023-04-30T00:09:05.420Z,17.67
2023-04-30T00:10:38.111Z,15.93
2023-04-30T00:12:10.855Z,19.23
2023-04-30T00:13:51.820Z,15.23
2023-04-30T00:15:24.496Z,14.73
2023-04-30T00:16:58.572Z,16.57
2023-04-30T00:18:31.268Z,16.87
2023-04-30T00:20:04.137Z,16.50
2023-04-30T00:21:36.860Z,17.83
2023-04-30T00:23:12.417Z,19.07
2023-04-30T00:24:44.324Z,19.20
2023-04-30T00:26:16.998Z,17.27
2023-04-30T00:27:49.670Z,23.47
2023-04-30T00:29:21.444Z,17.07
2023-04-30T00:30:54.729Z,17.53
2023-04-30T00:32:28.776Z,17.57
2023-04-30T00:34:01.469Z,15.57
2023-04-30T00:35:34.228Z,17.10
2023-04-30T00:37:06.931Z,18.00
2023-04-30T00:38:39.959Z,19.03
2023-04-30T00:40:13.700Z,17.70
2023-04-30T00:41:46.857Z,18.03
2023-04-30T00:43:19.538Z,18.17
2023-04-30T00:44:52.208Z,18.03
2023-04-30T00:46:24.918Z,18.27
2023-04-30T00:47:58.165Z,18.40
2023-04-30T00:49:30.952Z,18.83
2023-04-30T00:51:04.825Z,17.87
2023-04-30T00:52:36.642Z,18.20
2023-04-30T00:54:10.026Z,17.37
2023-04-30T00:55:43.697Z,18.43
2023-04-30T00:57:16.978Z,16.53
2023-04-30T00:58:51.381Z,17.37
2023-04-30T01:00:24.266Z,18.47
2023-04-30T01:01:57.310Z,17.57
2023-04-30T01:03:30.549Z,16.63
2023-04-30T01:05:03.901Z,18.13
2023-04-30T01:06:36.630Z,19.50
2023-04-30T01:08:10.182Z,15.93
2023-04-30T01:09:43.001Z,15.50
2023-04-30T01:11:28.660Z,19.20
2023-04-30T01:13:07.556Z,17.77
2023-04-30T01:14:54.195Z,17.83
2023-04-30T01:16:29.486Z,17.13
2023-04-30T01:18:07.525Z,17.53
2023-04-30T01:19:43.972Z,17.30
2023-04-30T01:21:18.365Z,18.97
2023-04-30T01:22:55.882Z,16.83
2023-04-30T01:24:50.026Z,17.00
2023-04-30T01:26:38.889Z,18.90
2023-04-30T01:28:16.495Z,18.67
2023-04-30T01:29:50.569Z,20.27
2023-04-30T01:31:25.555Z,18.07
2023-04-30T01:32:58.429Z,19.10
2023-04-30T01:34:31.184Z,17.93
2023-04-30T01:36:22.194Z,20.47
2023-04-30T01:38:04.497Z,20.10
2023-04-30T01:39:58.166Z,21.00
2023-04-30T01:41:36.158Z,20.00
2023-04-30T01:43:20.793Z,20.57
2023-04-30T01:45:06.147Z,18.90
2023-04-30T01:46:39.068Z,20.10
2023-04-30T01:48:23.592Z,22.73
2023-04-30T01:50:16.247Z,18.47
2023-04-30T01:51:55.905Z,20.30
2023-04-30T01:53:37.013Z,22.63
2023-04-30T01:55:14.953Z,22.07
2023-04-30T01:57:04.813Z,20.27
2023-04-30T01:58:39.452Z,22.60
2023-04-30T02:00:14.969Z,21.27
2023-04-30T02:01:48.006Z,22.97
2023-04-30T02:03:20.756Z,19.43
2023-04-30T02:04:53.898Z,19.70
2023-04-30T02:06:28.523Z,20.17
2023-04-30T02:08:01.617Z,21.13
2023-04-30T02:09:34.312Z,22.20
2023-04-30T02:11:06.036Z,21.40
2023-04-30T02:12:38.783Z,21.27
2023-04-30T02:14:12.780Z,21.67
2023-04-30T02:15:44.554Z,21.20
2023-04-30T02:17:17.290Z,20.73
2023-04-30T02:18:50.041Z,24.57
2023-04-30T02:20:22.875Z,22.57
2023-04-30T02:21:55.606Z,23.07
2023-04-30T02:23:28.280Z,21.63
2023-04-30T02:25:00.052Z,21.80
2023-04-30T02:26:32.856Z,23.27
2023-04-30T02:28:06.096Z,23.77
2023-04-30T02:29:39.182Z,23.43
2023-04-30T02:31:12.043Z,22.20
2023-04-30T02:32:44.810Z,23.27
2023-04-30T02:34:16.563Z,21.67
2023-04-30T02:35:49.250Z,24.00
2023-04-30T02:37:22.582Z,21.70
2023-04-30T02:38:54.319Z,24.50
2023-04-30T02:40:27.003Z,24.00
2023-04-30T02:41:58.896Z,23.33
2023-04-30T02:43:31.601Z,23.87
2023-04-30T02:45:06.425Z,22.87
2023-04-30T02:46:38.212Z,24.40
2023-04-30T02:48:10.893Z,24.40
2023-04-30T02:49:43.593Z,24.17
2023-04-30T02:51:16.281Z,22.43
2023-04-30T02:52:48.949Z,24.70
2023-04-30T02:54:21.670Z,24.87
2023-04-30T02:55:54.345Z,27.63
2023-04-30T02:57:27.162Z,23.73
2023-04-30T02:58:59.861Z,25.20
2023-04-30T03:00:33.958Z,24.00
2023-04-30T03:02:06.679Z,25.60
2023-04-30T03:03:39.417Z,22.20
2023-04-30T03:05:11.391Z,27.70
2023-04-30T03:06:44.230Z,24.73
2023-04-30T03:08:16.975Z,26.30
2023-04-30T03:09:49.699Z,25.43
2023-04-30T03:11:22.392Z,24.83
2023-04-30T03:12:55.068Z,24.10
2023-04-30T03:14:27.741Z,25.00
2023-04-30T03:16:04.475Z,23.87
2023-04-30T03:17:36.311Z,24.60
2023-04-30T03:19:09.098Z,24.93
2023-04-30T03:20:42.363Z,25.07
2023-04-30T03:22:15.047Z,26.27
2023-04-30T03:23:47.719Z,26.10
2023-04-30T03:25:20.483Z,25.90
2023-04-30T03:26:53.233Z,26.10
2023-04-30T03:28:25.976Z,24.70
2023-04-30T03:29:58.659Z,25.10
2023-04-30T03:31:33.257Z,25.47
2023-04-30T03:33:06.563Z,29.00
2023-04-30T03:34:39.747Z,25.77
2023-04-30T03:36:12.698Z,28.87
2023-04-30T03:37:45.450Z,25.50
2023-04-30T03:39:18.382Z,27.23
2023-04-30T03:40:50.121Z,25.77
2023-04-30T03:42:22.825Z,26.60
2023-04-30T03:43:54.598Z,25.40
2023-04-30T03:45:27.313Z,24.83
2023-04-30T03:47:01.320Z,28.13
2023-04-30T03:48:34.019Z,24.80
2023-04-30T03:50:07.274Z,28.60
2023-04-30T03:51:41.768Z,28.90
2023-04-30T03:53:13.627Z,28.70
2023-04-30T03:54:46.304Z,27.27
2023-04-30T03:56:19.040Z,30.17
2023-04-30T03:57:52.260Z,29.07
2023-04-30T03:59:24.999Z,29.53
2023-04-30T04:00:57.758Z,28.53
2023-04-30T04:02:32.865Z,28.23
2023-04-30T04:04:05.987Z,30.27
2023-04-30T04:05:38.901Z,29.50
2023-04-30T04:07:11.622Z,27.30
2023-04-30T04:08:44.646Z,30.03
2023-04-30T04:10:17.547Z,28.50
2023-04-30T04:11:50.383Z,28.53
2023-04-30T04:13:23.057Z,29.48
2023-04-30T04:14:55.951Z,26.90
2023-04-30T04:16:28.748Z,30.63
2023-04-30T04:18:03.198Z,29.23
2023-04-30T04:19:35.903Z,27.00
2023-04-30T04:21:08.777Z,29.87
2023-04-30T04:22:41.610Z,29.13
2023-04-30T04:24:14.315Z,32.47
2023-04-30T04:25:49.575Z,27.47
2023-04-30T04:27:22.282Z,29.97
2023-04-30T04:28:54.971Z,30.57
2023-04-30T04:30:27.808Z,30.73
2023-04-30T04:32:02.706Z,31.92
2023-04-30T04:33:37.042Z,28.93
2023-04-30T04:35:10.088Z,33.83
2023-04-30T04:36:43.014Z,36.35
2023-04-30T04:38:15.687Z,30.30
2023-04-30T04:39:47.682Z,29.10
2023-04-30T04:41:20.860Z,31.07
2023-04-30T04:42:53.538Z,28.00
2023-04-30T04:44:27.130Z,29.73
2023-04-30T04:45:59.859Z,32.27
2023-04-30T04:47:32.785Z,28.20
2023-04-30T04:49:06.846Z,28.83
2023-04-30T04:50:39.581Z,26.50
2023-04-30T04:52:12.260Z,27.23
2023-04-30T04:53:44.090Z,26.33
2023-04-30T04:55:16.904Z,29.90
2023-04-30T04:56:49.628Z,29.88
2023-04-30T04:58:22.309Z,26.03
2023-04-30T04:59:55.420Z,28.73
2023-04-30T05:01:29.444Z,29.30
2023-04-30T05:03:02.252Z,27.37
2023-04-30T05:04:35.349Z,28.80
2023-04-30T05:06:08.143Z,28.87
2023-04-30T05:07:41.276Z,26.97
2023-04-30T05:09:13.974Z,27.50
2023-04-30T05:10:46.725Z,27.30
2023-04-30T05:12:19.424Z,28.67
2023-04-30T05:13:52.089Z,25.60
2023-04-30T05:15:24.810Z,27.53
2023-04-30T05:16:57.526Z,26.47
2023-04-30T05:18:29.292Z,27.53
2023-04-30T05:20:03.545Z,27.08
2023-04-30T05:21:35.518Z,26.90
2023-04-30T05:23:08.218Z,26.77
2023-04-30T05:24:40.946Z,27.70
2023-04-30T05:26:13.673Z,26.77
2023-04-30T05:27:46.379Z,26.10
2023-04-30T05:29:19.038Z,26.25
2023-04-30T05:30:51.783Z,25.53
2023-04-30T05:32:24.783Z,24.60
2023-04-30T05:33:57.498Z,26.37
2023-04-30T05:35:31.682Z,24.45
2023-04-30T05:37:04.504Z,27.17
2023-04-30T05:38:37.205Z,25.90
2023-04-30T05:40:11.149Z,24.03
2023-04-30T05:41:43.886Z,23.60
2023-04-30T05:43:16.677Z,25.20
2023-04-30T05:44:49.557Z,25.60
2023-04-30T05:46:22.336Z,23.87
2023-04-30T05:47:55.097Z,23.63
2023-04-30T05:49:28.516Z,22.10
2023-04-30T05:51:02.561Z,24.03
2023-04-30T05:52:35.264Z,21.90
2023-04-30T05:54:08.008Z,21.17
2023-04-30T05:55:40.680Z,19.83
2023-04-30T05:57:13.397Z,21.40
2023-04-30T05:58:46.141Z,20.50
2023-04-30T06:00:19.334Z,20.67
2023-04-30T06:01:52.099Z,20.50
2023-04-30T06:03:23.917Z,20.33
2023-04-30T06:04:56.708Z,21.00
2023-04-30T06:06:31.660Z,21.03
2023-04-30T06:08:04.559Z,19.90
2023-04-30T06:09:37.275Z,19.27
2023-04-30T06:11:10.001Z,18.80
2023-04-30T06:12:42.762Z,19.67
2023-04-30T06:14:15.841Z,20.03
2023-04-30T06:15:48.609Z,19.13
2023-04-30T06:17:21.334Z,22.17
2023-04-30T06:18:54.220Z,19.47
2023-04-30T06:20:28.092Z,19.97
2023-04-30T06:22:02.140Z,18.80
2023-04-30T06:23:35.573Z,20.97
2023-04-30T06:25:09.495Z,18.93
2023-04-30T06:26:42.167Z,19.87
2023-04-30T06:28:14.860Z,20.10
2023-04-30T06:29:47.545Z,19.43
2023-04-30T06:31:20.298Z,18.00
2023-04-30T06:32:53.219Z,20.27
2023-04-30T06:34:26.647Z,17.43
2023-04-30T06:35:59.349Z,18.87
2023-04-30T06:37:37.351Z,16.33
2023-04-30T06:39:10.084Z,19.60
2023-04-30T06:40:42.764Z,16.10
2023-04-30T06:42:15.440Z,15.60
2023-04-30T06:43:48.151Z,17.23
2023-04-30T06:45:20.057Z,18.00
2023-04-30T06:46:52.726Z,14.80
2023-04-30T06:48:25.833Z,17.97
2023-04-30T06:49:58.533Z,15.57
2023-04-30T06:51:31.361Z,15.93
2023-04-30T06:53:05.517Z,16.27
2023-04-30T06:54:38.184Z,13.57
2023-04-30T06:56:10.889Z,15.47
2023-04-30T06:57:43.611Z,18.07
2023-04-30T06:59:16.536Z,16.67
2023-04-30T07:00:49.198Z,14.43
2023-04-30T07:02:22.370Z,14.83
2023-04-30T07:03:55.455Z,16.37
2023-04-30T07:05:28.311Z,16.17
2023-04-30T07:07:02.838Z,12.77
2023-04-30T07:08:37.253Z,15.20
2023-04-30T07:10:10.075Z,14.43
2023-04-30T07:11:42.926Z,13.20
2023-04-30T07:13:16.416Z,15.57
2023-04-30T07:14:49.138Z,12.77
2023-04-30T07:16:22.049Z,13.30
2023-04-30T07:17:55.178Z,12.23
2023-04-30T07:19:27.957Z,12.00
2023-04-30T07:21:01.129Z,11.83
2023-04-30T07:22:33.801Z,12.50
2023-04-30T07:24:07.957Z,13.80
2023-04-30T07:25:40.897Z,11.23
2023-04-30T07:27:13.646Z,11.97
2023-04-30T07:28:49.789Z,13.50
2023-04-30T07:30:24.425Z,11.07
2023-04-30T07:31:58.201Z,13.50
2023-04-30T07:33:30.969Z,11.77
2023-04-30T07:35:03.823Z,11.80
2023-04-30T07:36:38.450Z,11.30
2023-04-30T07:38:11.182Z,11.60
2023-04-30T07:39:45.434Z,12.50
2023-04-30T07:41:18.136Z,12.63
2023-04-30T07:42:50.833Z,11.27
2023-04-30T07:44:23.619Z,12.20
2023-04-30T07:45:56.331Z,12.53
2023-04-30T07:47:29.086Z,11.37
2023-04-30T07:49:01.958Z,11.87
2023-04-30T07:50:34.899Z,11.80
2023-04-30T07:52:10.872Z,11.90
2023-04-30T07:53:43.676Z,9.90
2023-04-30T07:55:17.792Z,10.03
2023-04-30T07:56:50.544Z,10.13
2023-04-30T07:58:23.231Z,12.00
2023-04-30T07:59:56.277Z,10.07
2023-04-30T08:01:29.303Z,10.73
2023-04-30T08:03:02.175Z,10.33
2023-04-30T08:04:35.124Z,10.30
2023-04-30T08:06:08.100Z,9.87
2023-04-30T08:07:41.394Z,10.03
2023-04-30T08:09:15.669Z,9.33
2023-04-30T08:10:49.713Z,9.63
2023-04-30T08:12:22.391Z,9.87
2023-04-30T08:13:55.540Z,9.63
2023-04-30T08:15:29.480Z,10.17
2023-04-30T08:17:03.217Z,9.53
2023-04-30T08:18:38.658Z,8.87
2023-04-30T08:20:12.255Z,10.57
2023-04-30T08:21:45.006Z,8.77
2023-04-30T08:23:17.846Z,9.07
2023-04-30T08:24:50.997Z,9.93
2023-04-30T08:26:25.910Z,8.80
2023-04-30T08:27:58.729Z,9.77
2023-04-30T08:29:31.406Z,11.27
2023-04-30T08:31:04.279Z,7.93
2023-04-30T08:32:38.254Z,8.13
2023-04-30T08:34:11.017Z,9.03
2023-04-30T08:35:43.908Z,9.23
2023-04-30T08:37:17.571Z,10.30
2023-04-30T08:38:50.272Z,8.50
2023-04-30T08:40:33.839Z,9.00
2023-04-30T08:42:19.902Z,8.53
2023-04-30T08:43:53.985Z,8.00
2023-04-30T08:45:27.912Z,7.70
2023-04-30T08:47:02.436Z,8.63
2023-04-30T08:48:35.968Z,6.50
2023-04-30T08:50:09.519Z,7.20
2023-04-30T08:51:42.378Z,7.53
2023-04-30T08:53:17.291Z,6.70
2023-04-30T08:54:54.316Z,6.70
2023-04-30T08:56:27.549Z,6.90
2023-04-30T08:58:01.660Z,5.70
2023-04-30T08:59:34.595Z,6.23
2023-04-30T09:01:09.577Z,6.47
2023-04-30T09:02:43.005Z,6.33
2023-04-30T09:04:16.424Z,7.17
2023-04-30T09:05:49.121Z,6.40
2023-04-30T09:07:25.320Z,5.80
2023-04-30T09:08:58.286Z,5.60
2023-04-30T09:10:34.081Z,5.70
2023-04-30T09:12:19.820Z,7.03
2023-04-30T09:13:55.723Z,5.47
2023-04-30T09:15:28.933Z,4.87
2023-04-30T09:17:06.148Z,5.17
2023-04-30T09:18:40.637Z,6.27
2023-04-30T09:20:15.066Z,4.83
2023-04-30T09:21:47.908Z,4.87
2023-04-30T09:23:20.626Z,5.90
2023-04-30T09:24:53.428Z,6.30
2023-04-30T09:26:32.976Z,4.60
2023-04-30T09:28:10.330Z,5.10
2023-04-30T09:29:44.508Z,4.30
2023-04-30T09:31:21.106Z,5.37
2023-04-30T09:32:57.166Z,4.90
2023-04-30T09:34:35.476Z,4.40
2023-04-30T09:36:11.062Z,5.03
2023-04-30T09:37:43.724Z,4.70
2023-04-30T09:39:17.456Z,4.90
2023-04-30T09:40:50.322Z,5.13
2023-04-30T09:42:23.480Z,5.17
2023-04-30T09:43:56.486Z,5.23
2023-04-30T09:45:40.784Z,4.87
2023-04-30T09:47:15.119Z,5.00
2023-04-30T09:48:49.183Z,4.27
2023-04-30T09:50:21.989Z,5.30
2023-04-30T09:51:55.544Z,4.33
2023-04-30T09:53:29.119Z,4.03
2023-04-30T09:55:01.955Z,4.20
2023-04-30T09:56:39.273Z,4.43
2023-04-30T09:58:13.086Z,4.00
2023-04-30T09:59:47.286Z,3.70
2023-04-30T10:01:22.250Z,4.13
2023-04-30T10:02:55.273Z,4.53
2023-04-30T10:04:30.538Z,4.50
2023-04-30T10:06:04.448Z,6.10
2023-04-30T10:07:40.025Z,3.90
2023-04-30T10:09:15.942Z,3.20
2023-04-30T10:10:53.833Z,4.00
2023-04-30T10:12:34.573Z,3.93
2023-04-30T10:14:11.774Z,3.83
2023-04-30T10:15:51.307Z,4.90
2023-04-30T10:17:28.857Z,3.57
2023-04-30T10:19:14.596Z,3.97
2023-04-30T10:20:49.550Z,5.27
2023-04-30T10:22:22.382Z,4.30
2023-04-30T10:23:56.032Z,5.30
2023-04-30T10:25:29.771Z,4.00
2023-04-30T10:27:03.484Z,4.13
2023-04-30T10:28:36.241Z,3.70
2023-04-30T10:30:11.737Z,3.70
2023-04-30T10:31:46.858Z,4.10
2023-04-30T10:33:27.434Z,3.20
2023-04-30T10:35:08.527Z,3.67
2023-04-30T10:36:44.983Z,3.70
2023-04-30T10:38:23.093Z,4.03
2023-04-30T10:39:56.939Z,3.47
2023-04-30T10:41:29.840Z,4.07
2023-04-30T10:43:02.658Z,3.67
2023-04-30T10:44:37.272Z,4.10
2023-04-30T10:46:10.170Z,3.20
2023-04-30T10:47:45.493Z,4.20
2023-04-30T10:49:26.190Z,4.73
2023-04-30T10:51:00.477Z,5.67
2023-04-30T10:52:33.348Z,3.70
2023-04-30T10:54:05.481Z,3.30
2023-04-30T10:55:48.132Z,3.40
2023-04-30T10:57:22.749Z,3.77
2023-04-30T10:58:55.453Z,3.30
2023-04-30T11:00:29.893Z,4.10
2023-04-30T11:02:03.294Z,3.60
2023-04-30T11:03:37.085Z,3.57
2023-04-30T11:05:12.245Z,3.70
2023-04-30T11:06:57.035Z,3.20
2023-04-30T11:08:37.233Z,3.37
2023-04-30T11:10:10.552Z,3.87
2023-04-30T11:11:45.333Z,3.10
2023-04-30T11:13:18.079Z,2.67
2023-04-30T11:14:51.503Z,2.70
2023-04-30T11:16:30.552Z,2.90
2023-04-30T11:18:02.660Z,2.83
2023-04-30T11:19:35.616Z,2.90
2023-04-30T11:21:09.992Z,2.83
2023-04-30T11:22:42.811Z,3.47
2023-04-30T11:24:16.047Z,4.23
2023-04-30T11:25:49.178Z,3.13
2023-04-30T11:27:23.147Z,3.53
2023-04-30T11:28:57.474Z,3.67
2023-04-30T11:30:30.818Z,2.70
2023-04-30T11:32:05.433Z,4.23
2023-04-30T11:33:38.209Z,2.80
2023-04-30T11:35:11.372Z,3.37
2023-04-30T11:36:46.880Z,2.80
2023-04-30T11:38:22.113Z,2.57
2023-04-30T11:39:55.992Z,4.00
2023-04-30T11:41:28.928Z,3.33
2023-04-30T11:43:01.626Z,2.90
2023-04-30T11:44:33.400Z,3.30
2023-04-30T11:46:08.795Z,3.10
2023-04-30T11:47:43.049Z,2.73
2023-04-30T11:49:15.837Z,3.30
2023-04-30T11:50:48.593Z,3.07
2023-04-30T11:52:26.780Z,3.00
2023-04-30T11:53:59.551Z,2.93
2023-04-30T11:55:32.293Z,2.50
2023-04-30T11:57:05.675Z,2.60
2023-04-30T11:58:40.008Z,3.50
2023-04-30T12:00:14.546Z,2.57
2023-04-30T12:01:47.355Z,2.87
2023-04-30T12:03:20.224Z,2.80
2023-04-30T12:04:52.978Z,2.97
2023-04-30T12:06:27.534Z,2.70
2023-04-30T12:08:06.460Z,3.23
2023-04-30T12:09:53.441Z,2.40
2023-04-30T12:11:27.988Z,3.63
2023-04-30T12:13:00.743Z,3.47
2023-04-30T12:14:36.146Z,2.90
2023-04-30T12:16:09.045Z,2.90
2023-04-30T12:17:41.977Z,2.90
2023-04-30T12:19:14.815Z,2.60
2023-04-30T12:20:47.642Z,3.70
2023-04-30T12:22:20.539Z,3.17
2023-04-30T12:23:54.602Z,3.20
2023-04-30T12:25:29.725Z,2.40
2023-04-30T12:27:02.938Z,3.07
2023-04-30T12:28:36.257Z,2.40
2023-04-30T12:30:10.316Z,2.43
2023-04-30T12:31:44.057Z,3.57
2023-04-30T12:33:19.204Z,2.50
2023-04-30T12:34:52.068Z,3.20
2023-04-30T12:36:32.169Z,2.97
2023-04-30T12:38:06.523Z,3.10
2023-04-30T12:39:40.630Z,1.90
2023-04-30T12:41:15.199Z,2.27
2023-04-30T12:42:48.343Z,2.20
2023-04-30T12:44:23.236Z,1.93
2023-04-30T12:45:57.877Z,2.53
2023-04-30T12:47:31.356Z,1.90
2023-04-30T12:49:04.354Z,2.03
2023-04-30T12:50:38.060Z,1.90
2023-04-30T12:52:12.502Z,2.77
2023-04-30T12:53:46.914Z,1.93
2023-04-30T12:55:22.848Z,2.53
2023-04-30T12:57:03.222Z,1.70
2023-04-30T12:58:37.588Z,2.97
2023-04-30T13:00:12.304Z,3.40
2023-04-30T13:01:49.754Z,1.90
2023-04-30T13:03:23.282Z,2.43
2023-04-30T13:04:56.819Z,2.20
2023-04-30T13:06:30.181Z,1.73
2023-04-30T13:08:03.382Z,1.90
2023-04-30T13:09:36.929Z,1.90
2023-04-30T13:11:11.569Z,1.87
2023-04-30T13:12:44.374Z,2.10
2023-04-30T13:14:17.681Z,1.60
2023-04-30T13:15:50.530Z,1.60
2023-04-30T13:17:23.332Z,2.23
2023-04-30T13:18:56.058Z,2.67
2023-04-30T13:20:28.806Z,2.30
2023-04-30T13:22:02.055Z,1.70
2023-04-30T13:23:41.571Z,2.90
2023-04-30T13:25:22.006Z,1.47
2023-04-30T13:26:57.726Z,1.80
2023-04-30T13:28:31.014Z,2.37
2023-04-30T13:30:04.655Z,1.90
2023-04-30T13:31:37.570Z,1.47
2023-04-30T13:33:10.512Z,1.47
2023-04-30T13:34:43.310Z,1.30
2023-04-30T13:36:16.237Z,1.30
2023-04-30T13:37:52.251Z,1.50
2023-04-30T13:39:24.943Z,1.20
2023-04-30T13:40:57.675Z,1.20
2023-04-30T13:42:31.852Z,1.00
2023-04-30T13:44:04.537Z,1.20
2023-04-30T13:45:37.291Z,1.57
2023-04-30T13:47:10.933Z,5.10
2023-04-30T13:48:43.667Z,4.10
2023-04-30T13:50:16.385Z,2.00
2023-04-30T13:51:49.060Z,1.90
2023-04-30T13:53:22.479Z,7.70
2023-04-30T13:54:55.177Z,7.63
2023-04-30T13:56:27.923Z,4.63
2023-04-30T13:58:01.961Z,1.23
2023-04-30T13:59:34.759Z,1.90
2023-04-30T14:01:08.313Z,1.70
2023-04-30T14:02:42.323Z,1.63
2023-04-30T14:04:15.234Z,1.30
2023-04-30T14:05:48.071Z,1.10
2023-04-30T14:07:21.346Z,1.00
2023-04-30T14:08:54.027Z,1.23
2023-04-30T14:10:26.795Z,2.13
2023-04-30T14:11:59.823Z,2.17
2023-04-30T14:13:33.872Z,1.50
2023-04-30T14:15:08.164Z,1.33
2023-04-30T14:16:41.079Z,1.33
2023-04-30T14:18:14.304Z,1.50
2023-04-30T14:19:47.075Z,1.40
2023-04-30T14:21:20.508Z,1.10
2023-04-30T14:22:53.321Z,1.27
2023-04-30T14:24:26.191Z,1.57
2023-04-30T14:25:59.329Z,1.10
2023-04-30T14:27:32.668Z,1.30
2023-04-30T14:29:06.945Z,2.00
2023-04-30T14:30:39.652Z,1.10
2023-04-30T14:32:15.158Z,1.53
2023-04-30T14:33:47.953Z,1.03
2023-04-30T14:35:20.691Z,4.53
2023-04-30T14:36:53.413Z,2.50
2023-04-30T14:38:26.163Z,1.37
2023-04-30T14:40:01.888Z,1.60
2023-04-30T14:41:36.471Z,2.23
2023-04-30T14:43:09.189Z,5.67
2023-04-30T14:44:43.785Z,2.10
2023-04-30T14:46:16.789Z,6.67
2023-04-30T14:47:49.734Z,2.40
2023-04-30T14:49:22.477Z,4.60
2023-04-30T14:50:55.403Z,4.97
2023-04-30T14:52:28.136Z,3.50
2023-04-30T14:54:02.208Z,6.20
2023-04-30T14:55:34.937Z,6.13
2023-04-30T14:57:08.152Z,9.70
2023-04-30T14:58:40.860Z,7.53
2023-04-30T15:00:16.201Z,7.80
2023-04-30T15:01:49.011Z,15.67
2023-04-30T15:03:22.125Z,6.63
2023-04-30T15:04:54.904Z,1.70
2023-04-30T15:06:27.932Z,5.50
2023-04-30T15:08:00.974Z,2.47
2023-04-30T15:09:33.747Z,8.30
2023-04-30T15:11:09.448Z,10.17
2023-04-30T15:12:43.478Z,6.47
2023-04-30T15:14:16.928Z,11.70
2023-04-30T15:15:51.165Z,2.40
2023-04-30T15:17:24.379Z,12.43
2023-04-30T15:18:57.653Z,17.50
2023-04-30T15:20:30.442Z,3.63
2023-04-30T15:22:03.209Z,5.00
2023-04-30T15:23:35.900Z,4.10
2023-04-30T15:25:09.437Z,3.87
2023-04-30T15:26:42.169Z,2.57
2023-04-30T15:28:15.406Z,4.60
2023-04-30T15:29:48.099Z,4.30
2023-04-30T15:31:22.162Z,3.30
2023-04-30T15:32:54.998Z,5.80
2023-04-30T15:34:28.191Z,4.93
2023-04-30T15:36:00.893Z,2.53
2023-04-30T15:37:34.650Z,12.10
2023-04-30T15:39:07.354Z,3.10
2023-04-30T15:40:40.449Z,2.67
2023-04-30T15:42:13.161Z,1.80
2023-04-30T15:43:45.929Z,1.37
2023-04-30T15:45:20.376Z,2.20
2023-04-30T15:46:54.588Z,2.13
2023-04-30T15:48:27.362Z,2.33
2023-04-30T15:49:59.226Z,4.13
2023-04-30T15:51:33.162Z,1.00
2023-04-30T15:53:06.061Z,8.53
2023-04-30T15:54:39.297Z,3.53
2023-04-30T15:56:12.067Z,1.40
2023-04-30T15:57:44.906Z,1.40
2023-04-30T15:59:19.684Z,1.20
2023-04-30T16:00:53.590Z,2.10
2023-04-30T16:02:27.940Z,1.07
2023-04-30T16:04:01.045Z,1.00
2023-04-30T16:05:38.516Z,1.03
2023-04-30T16:07:11.794Z,0.90
2023-04-30T16:08:45.896Z,0.90
2023-04-30T16:10:19.899Z,1.10
2023-04-30T16:11:52.629Z,1.77
2023-04-30T16:13:25.389Z,1.20
2023-04-30T16:14:58.125Z,0.87
2023-04-30T16:16:31.572Z,1.00
2023-04-30T16:18:06.510Z,0.93
2023-04-30T16:19:39.235Z,1.23
2023-04-30T16:21:12.688Z,2.60
2023-04-30T16:22:45.919Z,0.90
2023-04-30T16:24:18.608Z,1.00
2023-04-30T16:25:51.307Z,0.80
2023-04-30T16:27:24.125Z,1.03
2023-04-30T16:28:56.846Z,1.10
2023-04-30T16:30:29.640Z,1.13
2023-04-30T16:32:02.828Z,1.03
2023-04-30T16:33:36.907Z,0.90
2023-04-30T16:35:10.393Z,0.90
2023-04-30T16:36:43.071Z,2.77
2023-04-30T16:38:15.822Z,1.23
2023-04-30T16:39:48.485Z,1.00
2023-04-30T16:41:21.772Z,0.80
2023-04-30T16:42:54.464Z,0.60
2023-04-30T16:44:27.150Z,1.37
2023-04-30T16:45:59.889Z,1.57
2023-04-30T16:47:32.677Z,0.87
2023-04-30T16:49:06.717Z,0.80
2023-04-30T16:50:39.427Z,1.10
2023-04-30T16:52:12.523Z,0.80
2023-04-30T16:53:45.232Z,1.00
2023-04-30T16:55:17.984Z,0.80
2023-04-30T16:56:50.704Z,0.93
2023-04-30T16:58:23.374Z,1.40
2023-04-30T16:59:56.348Z,0.90
2023-04-30T17:01:29.354Z,1.30
2023-04-30T17:03:02.253Z,1.97
2023-04-30T17:04:36.820Z,1.10
2023-04-30T17:06:10.039Z,1.20
2023-04-30T17:07:43.236Z,0.90
2023-04-30T17:09:16.383Z,3.70
2023-04-30T17:10:49.226Z,1.17
2023-04-30T17:12:21.971Z,1.43
2023-04-30T17:13:55.191Z,0.93
2023-04-30T17:15:27.985Z,1.03
2023-04-30T17:17:00.790Z,1.37
2023-04-30T17:18:33.552Z,2.37
2023-04-30T17:20:08.707Z,1.70
2023-04-30T17:21:41.426Z,2.03
2023-04-30T17:23:14.195Z,1.20
2023-04-30T17:24:47.014Z,2.23
2023-04-30T17:26:20.247Z,7.20
2023-04-30T17:27:53.104Z,5.43
2023-04-30T17:29:25.843Z,4.87
2023-04-30T17:30:58.698Z,1.27
2023-04-30T17:32:31.449Z,1.47
2023-04-30T17:34:04.168Z,1.17
2023-04-30T17:35:38.211Z,1.47
2023-04-30T17:37:10.924Z,2.80
2023-04-30T17:38:43.647Z,0.87
2023-04-30T17:40:16.819Z,0.87
2023-04-30T17:41:49.554Z,1.17
2023-04-30T17:43:22.253Z,1.53
2023-04-30T17:44:54.917Z,1.43
2023-04-30T17:46:27.702Z,2.20
2023-04-30T17:48:00.507Z,1.20
2023-04-30T17:49:33.559Z,2.43
2023-04-30T17:51:07.816Z,1.20
2023-04-30T17:52:40.599Z,1.13
2023-04-30T17:54:13.354Z,1.50
2023-04-30T17:55:46.118Z,1.07
2023-04-30T17:57:18.799Z,1.00
2023-04-30T17:58:51.706Z,1.20
2023-04-30T18:00:24.822Z,1.17
2023-04-30T18:01:57.768Z,1.87
2023-04-30T18:03:30.751Z,1.50
2023-04-30T18:05:03.696Z,1.60
2023-04-30T18:06:37.759Z,1.27
2023-04-30T18:08:10.546Z,1.00
2023-04-30T18:09:43.331Z,1.60
2023-04-30T18:11:16.040Z,2.10
2023-04-30T18:12:50.614Z,1.33
2023-04-30T18:14:23.305Z,2.63
2023-04-30T18:15:56.072Z,2.03
2023-04-30T18:17:28.899Z,2.50
2023-04-30T18:19:02.731Z,2.20
2023-04-30T18:20:35.837Z,1.13
2023-04-30T18:22:09.074Z,1.30
2023-04-30T18:23:41.890Z,2.50
2023-04-30T18:25:17.144Z,1.83
2023-04-30T18:26:50.057Z,1.30
2023-04-30T18:28:24.606Z,1.77
2023-04-30T18:29:57.586Z,1.20
2023-04-30T18:31:30.555Z,1.40
2023-04-30T18:33:04.046Z,1.17
2023-04-30T18:34:37.921Z,1.20
2023-04-30T18:36:10.829Z,2.00
2023-04-30T18:37:44.952Z,1.40
2023-04-30T18:39:17.654Z,1.20
2023-04-30T18:40:54.423Z,2.30
2023-04-30T18:42:27.283Z,1.70
2023-04-30T18:43:59.972Z,1.57
2023-04-30T18:45:32.689Z,2.07
2023-04-30T18:47:06.743Z,1.30
2023-04-30T18:48:39.531Z,1.40
2023-04-30T18:50:16.961Z,1.63
2023-04-30T18:51:49.802Z,1.70
2023-04-30T18:53:25.019Z,2.13
2023-04-30T18:54:57.721Z,1.57
2023-04-30T18:56:30.514Z,1.60
2023-04-30T18:58:03.228Z,1.83
2023-04-30T18:59:35.941Z,2.00
2023-04-30T19:01:09.295Z,1.70
2023-04-30T19:02:42.800Z,1.33
2023-04-30T19:04:16.759Z,1.67
2023-04-30T19:05:49.449Z,3.17
2023-04-30T19:07:22.119Z,1.77
2023-04-30T19:08:56.151Z,1.90
2023-04-30T19:10:28.869Z,1.50
2023-04-30T19:12:02.210Z,1.60
2023-04-30T19:13:35.075Z,2.20
2023-04-30T19:15:11.443Z,1.60
2023-04-30T19:16:44.406Z,3.03
2023-04-30T19:18:17.749Z,2.00
2023-04-30T19:19:50.633Z,3.33
2023-04-30T19:21:24.137Z,1.53
2023-04-30T19:22:56.846Z,1.87
2023-04-30T19:24:30.959Z,1.63
2023-04-30T19:26:03.727Z,2.00
2023-04-30T19:27:36.512Z,1.80
2023-04-30T19:29:09.414Z,2.00
2023-04-30T19:30:42.541Z,2.20
2023-04-30T19:32:15.607Z,2.30
2023-04-30T19:33:48.370Z,1.73
2023-04-30T19:35:21.165Z,1.93
2023-04-30T19:36:53.856Z,2.30
2023-04-30T19:38:26.988Z,1.70
2023-04-30T19:40:01.033Z,1.70
2023-04-30T19:41:33.728Z,1.93
2023-04-30T19:43:06.432Z,1.40
2023-04-30T19:44:39.118Z,1.63
2023-04-30T19:46:12.826Z,2.17
2023-04-30T19:47:45.753Z,1.70
2023-04-30T19:49:18.453Z,1.63
2023-04-30T19:50:53.233Z,2.47
2023-04-30T19:52:26.074Z,2.73
2023-04-30T19:53:59.215Z,2.53
2023-04-30T19:55:34.161Z,1.53
2023-04-30T19:57:06.973Z,2.20
2023-04-30T19:58:39.690Z,1.83
2023-04-30T20:00:13.640Z,1.30
2023-04-30T20:01:46.384Z,1.57
2023-04-30T20:03:20.478Z,1.70
2023-04-30T20:04:53.314Z,1.60
2023-04-30T20:06:26.515Z,1.80
2023-04-30T20:07:59.583Z,1.57
2023-04-30T20:09:32.293Z,1.60
2023-04-30T20:11:06.374Z,1.80
2023-04-30T20:12:39.412Z,1.93
2023-04-30T20:14:12.120Z,1.70
2023-04-30T20:15:44.966Z,1.50
2023-04-30T20:17:17.804Z,1.50
2023-04-30T20:18:50.524Z,1.73
2023-04-30T20:20:24.624Z,1.80
2023-04-30T20:21:57.425Z,2.50
2023-04-30T20:23:30.123Z,1.73
2023-04-30T20:25:03.588Z,1.63
2023-04-30T20:26:37.722Z,1.73
2023-04-30T20:28:10.701Z,1.90
2023-04-30T20:29:43.411Z,2.83
2023-04-30T20:31:16.283Z,1.83
2023-04-30T20:32:49.175Z,2.07